createdAt,value
2022-09-11T00:00:13.691Z,87.70
2022-09-11T00:10:17.818Z,87.51
2022-09-11T00:20:21.403Z,88.27
2022-09-11T00:30:25.512Z,88.38
2022-09-11T00:40:28.253Z,88.03
2022-09-11T00:50:33.579Z,88.29
2022-09-11T01:00:37.196Z,88.25
2022-09-11T01:10:51.697Z,88.27
2022-09-11T01:21:09.175Z,89.51
2022-09-11T01:31:15.649Z,89.15
2022-09-11T01:41:21.002Z,89.54
2022-09-11T01:51:32.111Z,89.44
2022-09-11T02:01:37.926Z,89.24
2022-09-11T02:11:45.707Z,89.50
2022-09-11T02:21:50.806Z,89.50
2022-09-11T02:31:55.630Z,89.99
2022-09-11T02:42:13.216Z,90.42
2022-09-11T02:52:27.452Z,90.09
2022-09-11T03:02:31.268Z,90.50
2022-09-11T03:12:36.560Z,90.10
2022-09-11T03:22:39.765Z,90.65
2022-09-11T03:32:43.746Z,90.44
2022-09-11T03:42:46.519Z,90.41
2022-09-11T03:52:50.651Z,90.45
2022-09-11T04:02:53.779Z,90.38
2022-09-11T04:12:57.776Z,90.66
2022-09-11T04:23:00.465Z,91.21
2022-09-11T04:33:05.311Z,90.95
2022-09-11T04:43:08.187Z,90.83
2022-09-11T04:53:13.462Z,90.53
2022-09-11T05:03:16.085Z,90.69
2022-09-11T05:13:20.097Z,90.28
2022-09-11T05:23:22.758Z,90.69
2022-09-11T05:33:28.871Z,90.66
2022-09-11T05:43:31.610Z,90.79
2022-09-11T05:53:35.638Z,91.18
2022-09-11T06:03:39.373Z,90.94
2022-09-11T06:13:45.627Z,90.65
2022-09-11T06:23:48.651Z,90.69
2022-09-11T06:33:53.419Z,90.53
2022-09-11T06:43:56.336Z,90.51
2022-09-11T06:54:02.355Z,90.10
2022-09-11T07:04:04.995Z,90.43
2022-09-11T07:14:08.974Z,89.99
2022-09-11T07:24:11.614Z,90.41
2022-09-11T07:34:15.623Z,89.77
2022-09-11T07:44:18.515Z,89.44
2022-09-11T07:54:22.787Z,89.73
2022-09-11T08:04:25.564Z,89.36
2022-09-11T08:14:31.087Z,88.42
2022-09-11T08:24:33.796Z,88.58
2022-09-11T08:34:38.442Z,87.93
2022-09-11T08:44:47.999Z,87.25
2022-09-11T08:54:53.639Z,88.40
2022-09-11T09:05:15.272Z,86.77
2022-09-11T09:15:29.264Z,86.03
2022-09-11T09:25:37.504Z,84.79
2022-09-11T09:35:44.567Z,81.71
2022-09-11T09:45:59.443Z,78.05
2022-09-11T09:56:05.956Z,76.53
2022-09-11T10:06:10.080Z,73.55
2022-09-11T10:16:23.335Z,73.58
2022-09-11T10:26:29.741Z,73.83
2022-09-11T10:36:35.083Z,72.81
2022-09-11T10:46:39.259Z,71.31
2022-09-11T10:56:54.582Z,70.64
2022-09-11T11:07:11.160Z,64.82
2022-09-11T11:17:24.812Z,67.88
2022-09-11T11:27:44.977Z,69.46
2022-09-11T11:37:50.147Z,69.16
2022-09-11T11:47:55.036Z,46.09
2022-09-11T11:58:07.870Z,30.09
2022-09-11T12:08:13.968Z,25.56
2022-09-11T12:18:25.751Z,22.24
2022-09-11T12:28:29.769Z,23.36
2022-09-11T12:38:40.421Z,24.55
2022-09-11T12:48:56.186Z,36.61
2022-09-11T12:59:10.972Z,46.69
2022-09-11T13:09:22.524Z,50.12
2022-09-11T13:19:33.298Z,50.63
2022-09-11T13:29:40.178Z,52.67
2022-09-11T13:39:45.927Z,53.33
2022-09-11T13:49:51.003Z,51.85
2022-09-11T13:59:56.878Z,52.87
2022-09-11T14:10:04.555Z,51.42
2022-09-11T14:20:17.806Z,52.53
2022-09-11T14:30:36.917Z,53.66
2022-09-11T14:40:48.397Z,52.38
2022-09-11T14:50:51.115Z,52.46
2022-09-11T15:00:56.548Z,53.02
2022-09-11T15:10:59.218Z,55.23
2022-09-11T15:21:03.413Z,55.98
2022-09-11T15:31:06.434Z,57.16
2022-09-11T15:41:11.004Z,59.25
2022-09-11T15:51:14.886Z,61.11
2022-09-11T16:01:20.135Z,62.16
2022-09-11T16:11:24.514Z,58.91
2022-09-11T16:21:29.463Z,57.07
2022-09-11T16:31:32.200Z,58.19
2022-09-11T16:41:37.779Z,58.42
2022-09-11T16:51:40.433Z,59.38
2022-09-11T17:01:45.181Z,60.48
2022-09-11T17:11:48.764Z,61.76
2022-09-11T17:21:52.878Z,63.86
2022-09-11T17:32:10.853Z,65.43
2022-09-11T17:42:19.990Z,67.90
2022-09-11T17:52:22.974Z,69.42
2022-09-11T18:02:27.910Z,70.53
2022-09-11T18:12:35.178Z,71.77
2022-09-11T18:22:39.897Z,72.67
2022-09-11T18:32:42.730Z,72.90
2022-09-11T18:42:47.119Z,73.78
2022-09-11T18:52:51.957Z,74.25
2022-09-11T19:02:56.967Z,74.99
2022-09-11T19:13:00.315Z,75.34
2022-09-11T19:23:04.725Z,75.57
2022-09-11T19:33:07.754Z,75.39
2022-09-11T19:43:12.260Z,75.38
2022-09-11T19:53:14.912Z,75.29
2022-09-11T20:03:19.634Z,75.88
2022-09-11T20:13:22.552Z,76.15
2022-09-11T20:23:26.802Z,76.67
2022-09-11T20:33:29.568Z,76.67
2022-09-11T20:43:33.654Z,77.50
2022-09-11T20:53:36.459Z,77.89
2022-09-11T21:03:44.925Z,77.90
2022-09-11T21:13:47.696Z,78.86
2022-09-11T21:23:55.421Z,79.08
2022-09-11T21:33:58.440Z,79.28
2022-09-11T21:44:03.206Z,79.22
2022-09-11T21:54:06.291Z,79.35
2022-09-11T22:04:10.272Z,79.79
2022-09-11T22:14:13.557Z,80.08
2022-09-11T22:24:19.696Z,80.36
2022-09-11T22:34:23.485Z,80.54
2022-09-11T22:44:27.645Z,80.78
2022-09-11T22:54:30.451Z,80.72
2022-09-11T23:04:34.648Z,81.06
2022-09-11T23:14:37.824Z,81.08
2022-09-11T23:24:41.989Z,81.38
2022-09-11T23:34:44.662Z,81.41
2022-09-11T23:44:48.807Z,81.52
2022-09-11T23:54:51.592Z,81.90
